Time;durP1;ratioP1;P1;durP2;ratioP2;P2;SDS_P1;SDS_P2;PMS_P1;PMS_P2;Temp;Humidity;BMP_temperature;BMP_pressure;BME280_temperature;BME280_humidity;BME280_pressure;Samples;Min_cycle;Max_cycle;Signal;HPM_P1;HPM_P2
2021/04/08 00:01:46;;;;;;;7.13;6.43;;;2.40;99.90;;;;;;5031002;28;20465;-68
2021/04/08 00:04:12;;;;;;;7.23;6.37;;;2.40;99.90;;;;;;5030887;28;20897;-68
2021/04/08 00:06:38;;;;;;;11.67;6.80;;;2.40;99.90;;;;;;5030753;28;20427;-68
2021/04/08 00:09:04;;;;;;;7.17;6.57;;;2.30;99.90;;;;;;5031083;28;20445;-69
2021/04/08 00:11:31;;;;;;;11.60;7.20;;;2.30;99.90;;;;;;5030811;28;21032;-68
2021/04/08 00:13:57;;;;;;;9.83;6.20;;;2.30;99.90;;;;;;5030896;28;20412;-68
2021/04/08 00:16:24;;;;;;;7.97;6.23;;;2.30;99.90;;;;;;5030826;28;20454;-68
2021/04/08 00:18:50;;;;;;;7.47;6.77;;;2.30;99.90;;;;;;5030746;28;20449;-68
2021/04/08 00:21:17;;;;;;;7.70;7.10;;;2.20;99.90;;;;;;5030683;28;20803;-68
2021/04/08 00:23:43;;;;;;;7.17;6.47;;;2.20;99.90;;;;;;5031865;28;21040;-68
2021/04/08 00:26:09;;;;;;;7.67;6.97;;;2.10;99.90;;;;;;5034428;28;20825;-68
2021/04/08 00:28:35;;;;;;;7.87;6.90;;;2.10;99.90;;;;;;5034299;28;20447;-68
2021/04/08 00:31:01;;;;;;;8.07;7.37;;;2.00;99.90;;;;;;5034380;28;20460;-68
2021/04/08 00:33:29;;;;;;;7.17;5.73;;;2.00;99.90;;;;;;5072436;23;20459;-64
2021/04/08 00:35:55;;;;;;;8.83;6.60;;;1.90;99.90;;;;;;5054319;28;20452;-64
2021/04/08 00:38:21;;;;;;;9.43;7.40;;;1.90;99.90;;;;;;5054314;28;20933;-64
2021/04/08 00:40:47;;;;;;;12.27;7.27;;;1.90;99.90;;;;;;5054364;28;20440;-64
2021/04/08 00:43:14;;;;;;;13.60;7.57;;;1.80;99.90;;;;;;5053797;28;20833;-64
2021/04/08 00:45:40;;;;;;;7.90;6.37;;;1.80;99.90;;;;;;5054269;28;20504;-64
2021/04/08 00:48:07;;;;;;;8.73;6.70;;;1.80;99.90;;;;;;5054041;28;20472;-64
2021/04/08 00:50:34;;;;;;;11.00;7.20;;;1.80;99.90;;;;;;5054125;28;20436;-64
2021/04/08 00:53:03;;;;;;;8.93;7.57;;;1.70;99.90;;;;;;5053802;28;20465;-64
2021/04/08 00:55:34;;;;;;;11.50;7.90;;;1.70;99.90;;;;;;5054048;28;20415;-64
2021/04/08 00:58:03;;;;;;;10.47;9.57;;;1.70;99.90;;;;;;5053897;28;20414;-64
2021/04/08 01:00:30;;;;;;;12.77;8.63;;;1.60;99.90;;;;;;5053995;28;20430;-64
2021/04/08 01:02:56;;;;;;;15.73;10.53;;;1.60;99.90;;;;;;5053519;28;20438;-64
2021/04/08 01:05:23;;;;;;;12.73;8.80;;;1.60;99.90;;;;;;5053652;28;20477;-64
2021/04/08 01:07:51;;;;;;;10.20;9.20;;;1.60;99.90;;;;;;5053729;28;20448;-64
2021/04/08 01:10:20;;;;;;;15.67;9.70;;;1.50;99.90;;;;;;5053827;28;20848;-64
2021/04/08 01:12:47;;;;;;;11.80;10.60;;;1.50;99.90;;;;;;5053529;28;20948;-64
2021/04/08 01:15:13;;;;;;;16.70;10.10;;;1.50;99.90;;;;;;5053646;28;20419;-63
2021/04/08 01:17:45;;;;;;;19.40;13.60;;;1.50;99.90;;;;;;5053656;28;20444;-64
2021/04/08 01:20:33;;;;;;;14.43;9.90;;;1.50;99.90;;;;;;5053284;28;20444;-64
2021/04/08 01:23:31;;;;;;;21.10;12.63;;;1.40;99.90;;;;;;5053287;28;20464;-64
2021/04/08 01:26:12;;;;;;;14.13;12.10;;;1.40;99.90;;;;;;5051588;28;20448;-64
2021/04/08 01:28:40;;;;;;;18.83;14.33;;;1.40;99.90;;;;;;5053553;28;20447;-64
2021/04/08 01:31:10;;;;;;;16.80;12.70;;;1.40;99.90;;;;;;5053258;28;20935;-64
2021/04/08 01:33:41;;;;;;;13.17;11.03;;;1.40;99.90;;;;;;5052828;28;20529;-63
2021/04/08 01:36:10;;;;;;;17.40;12.40;;;1.50;99.90;;;;;;5052172;28;20444;-64
2021/04/08 01:38:39;;;;;;;15.20;11.93;;;1.50;99.90;;;;;;5053246;28;20921;-64
2021/04/08 01:41:07;;;;;;;14.97;11.20;;;1.60;99.90;;;;;;5053058;28;20463;-64
2021/04/08 01:43:37;;;;;;;13.93;11.40;;;1.60;99.90;;;;;;5052826;28;20460;-64
2021/04/08 01:46:05;;;;;;;15.70;10.20;;;1.60;99.90;;;;;;5053147;28;20419;-64
2021/04/08 01:48:34;;;;;;;15.43;11.10;;;1.50;99.90;;;;;;5053117;28;20423;-64
2021/04/08 01:51:03;;;;;;;14.00;9.50;;;1.50;99.90;;;;;;5053034;28;20451;-64
2021/04/08 01:53:33;;;;;;;10.60;9.50;;;1.50;99.90;;;;;;5052560;28;20973;-64
2021/04/08 01:56:01;;;;;;;16.20;10.83;;;1.50;99.90;;;;;;5052804;28;20448;-64
2021/04/08 01:58:29;;;;;;;11.87;9.20;;;1.50;99.90;;;;;;5052756;28;20471;-64
2021/04/08 02:00:57;;;;;;;14.53;9.83;;;1.50;99.90;;;;;;5052666;28;20444;-64
2021/04/08 02:03:24;;;;;;;12.80;9.93;;;1.50;99.90;;;;;;5052412;28;20439;-64
2021/04/08 02:05:52;;;;;;;11.73;9.50;;;1.50;99.90;;;;;;5052712;28;20478;-64
2021/04/08 02:08:20;;;;;;;12.77;9.93;;;1.40;99.90;;;;;;5052674;28;20431;-64
2021/04/08 02:10:46;;;;;;;9.57;8.57;;;1.40;99.90;;;;;;5052571;28;20415;-64
2021/04/08 02:13:15;;;;;;;14.40;8.97;;;1.40;99.90;;;;;;5052057;28;21025;-64
2021/04/08 02:15:44;;;;;;;14.57;7.90;;;1.40;99.90;;;;;;5052562;28;20437;-64
2021/04/08 02:18:16;;;;;;;10.13;8.10;;;1.40;99.90;;;;;;5052424;28;20455;-64
2021/04/08 02:20:43;;;;;;;20.07;9.13;;;1.40;99.90;;;;;;5052606;28;20447;-64
2021/04/08 02:23:16;;;;;;;11.40;8.40;;;1.40;99.90;;;;;;5052055;28;20460;-64
2021/04/08 02:25:46;;;;;;;9.80;7.80;;;1.40;99.90;;;;;;5052292;28;20475;-64
2021/04/08 02:28:13;;;;;;;12.03;8.00;;;1.40;99.90;;;;;;5052227;28;20444;-64
2021/04/08 02:30:46;;;;;;;15.33;9.40;;;1.40;99.90;;;;;;5052204;28;20451;-64
2021/04/08 02:33:18;;;;;;;11.50;9.90;;;1.40;99.90;;;;;;5051727;28;20479;-64
2021/04/08 02:35:44;;;;;;;11.80;8.77;;;1.40;99.90;;;;;;5052213;28;20440;-64
2021/04/08 02:38:11;;;;;;;14.30;8.77;;;1.40;99.90;;;;;;5052000;28;20433;-64
2021/04/08 02:40:37;;;;;;;10.53;8.20;;;1.50;99.90;;;;;;5051977;28;20422;-63
2021/04/08 02:43:03;;;;;;;9.50;8.60;;;1.50;99.90;;;;;;5051784;28;20537;-63
2021/04/08 02:45:29;;;;;;;10.80;7.90;;;1.50;99.90;;;;;;5051971;28;20459;-64
2021/04/08 02:47:56;;;;;;;12.33;9.10;;;1.50;99.90;;;;;;5051703;28;20444;-64
2021/04/08 02:50:25;;;;;;;16.60;8.60;;;1.50;99.90;;;;;;5051968;28;20440;-64
2021/04/08 02:52:59;;;;;;;16.87;8.30;;;1.50;99.90;;;;;;5051635;28;20517;-64
2021/04/08 02:55:31;;;;;;;8.93;7.27;;;1.50;99.90;;;;;;5051813;28;20441;-64
2021/04/08 02:58:01;;;;;;;9.60;8.63;;;1.60;99.90;;;;;;5051813;28;20951;-64
2021/04/08 03:00:30;;;;;;;11.43;8.53;;;1.60;99.90;;;;;;5051769;28;20502;-64
2021/04/08 03:03:01;;;;;;;8.70;7.63;;;1.60;99.90;;;;;;5051594;28;20438;-63
2021/04/08 03:05:28;;;;;;;10.47;7.03;;;1.70;99.90;;;;;;5051631;28;20479;-63
2021/04/08 03:07:58;;;;;;;15.90;8.60;;;1.70;99.90;;;;;;5051537;28;20492;-63
2021/04/08 03:10:24;;;;;;;13.40;6.57;;;1.80;99.90;;;;;;5051726;28;20419;-63
2021/04/08 03:12:55;;;;;;;8.17;7.40;;;1.80;99.90;;;;;;5051352;28;20438;-62
2021/04/08 03:15:28;;;;;;;6.67;6.17;;;1.80;99.90;;;;;;5051524;28;20421;-63
2021/04/08 03:17:56;;;;;;;12.07;7.97;;;1.80;99.90;;;;;;5051541;28;20447;-63
2021/04/08 03:20:22;;;;;;;7.23;6.67;;;1.80;99.90;;;;;;5051473;28;20953;-63
2021/04/08 03:22:51;;;;;;;8.70;7.87;;;1.80;99.90;;;;;;5051114;28;20442;-63
2021/04/08 03:25:19;;;;;;;12.23;7.03;;;1.80;99.90;;;;;;5051308;28;20479;-63
2021/04/08 03:27:47;;;;;;;8.73;6.70;;;1.80;99.90;;;;;;5051398;28;20991;-63
2021/04/08 03:30:16;;;;;;;9.03;8.13;;;1.80;99.90;;;;;;5051352;28;20443;-63
2021/04/08 03:32:43;;;;;;;10.57;9.47;;;1.80;99.90;;;;;;5051302;28;20503;-63
2021/04/08 03:35:12;;;;;;;8.73;8.07;;;1.90;99.90;;;;;;5051551;28;20444;-63
2021/04/08 03:37:39;;;;;;;11.67;8.00;;;1.90;99.90;;;;;;5051674;28;20444;-64
2021/04/08 03:40:08;;;;;;;12.83;10.07;;;1.90;99.90;;;;;;5051297;28;20443;-64
2021/04/08 03:42:35;;;;;;;8.53;7.93;;;1.90;99.90;;;;;;5051144;28;20464;-63
2021/04/08 03:45:02;;;;;;;10.27;9.13;;;1.90;99.90;;;;;;5050990;28;20480;-64
2021/04/08 03:47:31;;;;;;;10.17;9.20;;;1.90;99.90;;;;;;5051206;28;20414;-63
2021/04/08 03:49:58;;;;;;;12.40;11.10;;;1.90;99.90;;;;;;5051328;28;20484;-63
2021/04/08 03:52:25;;;;;;;12.40;11.20;;;2.00;99.90;;;;;;5051153;28;20833;-63
2021/04/08 03:54:53;;;;;;;13.40;11.67;;;2.00;99.90;;;;;;5050909;28;20463;-64
2021/04/08 03:57:22;;;;;;;12.90;11.90;;;2.10;99.90;;;;;;5051158;28;20426;-64
2021/04/08 03:59:48;;;;;;;14.13;12.70;;;2.10;99.90;;;;;;5054371;28;20454;-64
2021/04/08 04:02:16;;;;;;;14.70;13.50;;;2.20;99.90;;;;;;5055056;28;20471;-64
2021/04/08 04:04:45;;;;;;;16.70;15.17;;;2.10;99.90;;;;;;5054586;28;20451;-64
2021/04/08 04:07:11;;;;;;;14.80;13.60;;;2.10;99.90;;;;;;5054670;28;20436;-64
2021/04/08 04:09:38;;;;;;;16.57;15.07;;;2.10;99.90;;;;;;5054830;28;20436;-64
2021/04/08 04:12:04;;;;;;;16.03;13.80;;;2.10;99.90;;;;;;5054762;28;20464;-64
2021/04/08 04:14:32;;;;;;;15.70;14.30;;;2.10;99.90;;;;;;5054453;28;20436;-64
2021/04/08 04:17:15;;;;;;;15.23;14.13;;;2.10;99.90;;;;;;5054700;28;20848;-64
2021/04/08 04:19:41;;;;;;;15.10;13.80;;;2.10;99.90;;;;;;5054687;28;20518;-64
2021/04/08 04:22:08;;;;;;;30.77;15.80;;;2.10;99.90;;;;;;5054558;28;20462;-64
2021/04/08 04:24:34;;;;;;;18.97;17.10;;;2.10;99.90;;;;;;5054311;28;20443;-64
2021/04/08 04:27:00;;;;;;;14.07;13.10;;;2.20;99.90;;;;;;5054562;28;20937;-64
2021/04/08 04:29:26;;;;;;;14.80;13.60;;;2.20;99.90;;;;;;5054309;28;20486;-64
2021/04/08 04:31:52;;;;;;;15.40;14.20;;;2.20;99.90;;;;;;5054164;28;20464;-63
2021/04/08 04:34:20;;;;;;;19.23;17.73;;;2.30;99.90;;;;;;5054128;28;20411;-63
2021/04/08 04:36:47;;;;;;;16.97;15.60;;;2.30;99.90;;;;;;5054460;28;20474;-64
2021/04/08 04:39:14;;;;;;;17.10;15.60;;;2.30;99.90;;;;;;5054344;28;20444;-63
2021/04/08 04:41:42;;;;;;;18.20;16.70;;;2.30;99.90;;;;;;5054141;28;20415;-63
2021/04/08 04:44:08;;;;;;;18.50;17.20;;;2.30;99.90;;;;;;5053830;28;20484;-63
2021/04/08 04:46:35;;;;;;;19.27;17.87;;;2.30;99.90;;;;;;5054164;28;20440;-63
2021/04/08 04:49:02;;;;;;;21.13;19.27;;;2.30;99.90;;;;;;5054207;28;20444;-63
2021/04/08 04:51:28;;;;;;;18.33;17.00;;;2.40;99.90;;;;;;5053805;28;20539;-63
2021/04/08 04:53:54;;;;;;;19.70;17.90;;;2.40;99.90;;;;;;5053656;28;20543;-63
2021/04/08 04:56:21;;;;;;;19.60;18.33;;;2.40;99.90;;;;;;5053909;28;20876;-64
2021/04/08 04:58:47;;;;;;;20.03;18.60;;;2.50;99.90;;;;;;5054047;28;20816;-63
2021/04/08 05:01:13;;;;;;;19.23;17.80;;;2.50;99.90;;;;;;5053828;28;20451;-64
2021/04/08 05:03:39;;;;;;;20.03;18.57;;;2.50;99.90;;;;;;5053676;28;20518;-64
2021/04/08 05:06:06;;;;;;;22.13;20.23;;;2.50;99.90;;;;;;5053790;28;20441;-63
2021/04/08 05:08:33;;;;;;;22.47;20.40;;;2.50;99.90;;;;;;5053355;28;20474;-63
2021/04/08 05:10:59;;;;;;;22.47;20.50;;;2.60;99.90;;;;;;5053465;28;20422;-63
2021/04/08 05:13:26;;;;;;;22.10;20.07;;;2.60;99.90;;;;;;5053369;28;20468;-64
2021/04/08 05:15:52;;;;;;;22.80;21.33;;;2.60;99.90;;;;;;5053612;28;20439;-64
2021/04/08 05:18:18;;;;;;;22.60;21.10;;;2.60;99.90;;;;;;5053423;28;20501;-64
2021/04/08 05:20:44;;;;;;;20.80;19.30;;;2.60;99.90;;;;;;5053472;28;20440;-64
2021/04/08 05:23:11;;;;;;;24.07;22.00;;;2.70;99.90;;;;;;5053160;28;20460;-63
2021/04/08 05:25:37;;;;;;;22.70;21.10;;;2.80;99.90;;;;;;5053385;28;20480;-65
2021/04/08 05:28:03;;;;;;;24.20;22.40;;;2.80;99.90;;;;;;5053702;28;20444;-70
2021/04/08 05:30:30;;;;;;;23.13;21.20;;;2.90;99.90;;;;;;5053628;28;20494;-65
2021/04/08 05:32:57;;;;;;;25.50;22.83;;;2.90;99.90;;;;;;5052996;28;21020;-64
2021/04/08 05:35:23;;;;;;;22.10;20.70;;;2.90;99.90;;;;;;5053939;28;20440;-64
2021/04/08 05:37:49;;;;;;;23.77;21.57;;;3.00;99.90;;;;;;5054689;28;20444;-64
2021/04/08 05:40:16;;;;;;;22.93;21.33;;;3.10;99.90;;;;;;5052741;28;20444;-63
2021/04/08 05:42:43;;;;;;;23.37;21.17;;;3.10;99.90;;;;;;5052568;28;20474;-64
2021/04/08 05:45:10;;;;;;;22.50;20.90;;;3.10;99.90;;;;;;5052866;28;20479;-63
2021/04/08 05:47:37;;;;;;;24.67;22.57;;;3.30;99.90;;;;;;5052652;28;20426;-63
2021/04/08 05:50:05;;;;;;;23.83;21.87;;;3.30;99.90;;;;;;5053012;28;20447;-63
2021/04/08 05:52:31;;;;;;;23.17;21.10;;;3.40;99.90;;;;;;5052552;28;20435;-63
2021/04/08 05:54:57;;;;;;;22.23;20.63;;;3.50;99.90;;;;;;5052476;28;20486;-63
2021/04/08 05:57:23;;;;;;;24.67;22.67;;;3.50;99.90;;;;;;5052608;28;20453;-63
2021/04/08 05:59:49;;;;;;;23.30;21.73;;;3.60;99.90;;;;;;5052667;28;20455;-63
2021/04/08 06:02:15;;;;;;;24.40;22.40;;;3.70;99.90;;;;;;5052399;28;20464;-63
2021/04/08 06:04:42;;;;;;;23.03;21.40;;;3.80;99.90;;;;;;5052114;28;20842;-63
2021/04/08 06:07:09;;;;;;;23.03;21.40;;;3.80;99.90;;;;;;5052472;28;20440;-63
2021/04/08 06:09:35;;;;;;;21.67;20.37;;;3.90;99.90;;;;;;5052327;28;20444;-63
2021/04/08 06:12:01;;;;;;;22.23;20.73;;;4.00;99.90;;;;;;5052284;28;20464;-63
2021/04/08 06:14:28;;;;;;;22.37;20.97;;;4.10;99.90;;;;;;5052089;28;20445;-64
2021/04/08 06:16:55;;;;;;;23.17;21.40;;;4.20;99.90;;;;;;5052260;28;20459;-63
2021/04/08 06:19:21;;;;;;;22.63;20.73;;;4.20;99.90;;;;;;5052170;28;20490;-63
2021/04/08 06:21:48;;;;;;;22.27;20.73;;;4.30;99.90;;;;;;5051388;28;20440;-65
2021/04/08 06:24:14;;;;;;;24.10;22.10;;;4.50;99.90;;;;;;5051888;28;20476;-63
2021/04/08 06:26:40;;;;;;;22.90;20.67;;;4.50;99.90;;;;;;5051980;28;20467;-63
2021/04/08 06:29:07;;;;;;;22.50;21.13;;;4.60;99.90;;;;;;5052542;28;20447;-64
2021/04/08 06:31:35;;;;;;;22.67;21.17;;;4.80;99.90;;;;;;5051741;28;20440;-64
2021/04/08 06:34:02;;;;;;;21.17;19.97;;;4.90;99.90;;;;;;5053308;28;20539;-65
2021/04/08 06:36:28;;;;;;;21.67;20.17;;;5.00;99.90;;;;;;5051974;28;20817;-65
2021/04/08 06:38:55;;;;;;;22.87;20.97;;;5.00;99.90;;;;;;5052085;28;20471;-64
2021/04/08 06:41:21;;;;;;;23.53;20.90;;;5.10;99.90;;;;;;5051845;28;20444;-63
2021/04/08 06:43:51;;;;;;;22.10;20.83;;;5.20;99.90;;;;;;5051471;28;20457;-63
2021/04/08 06:46:21;;;;;;;23.73;21.50;;;5.30;99.90;;;;;;5052770;28;20436;-64
2021/04/08 06:48:53;;;;;;;21.10;19.40;;;5.50;99.90;;;;;;5051808;28;20937;-63
2021/04/08 06:51:21;;;;;;;21.37;20.13;;;5.60;99.90;;;;;;5051995;28;20835;-64
2021/04/08 06:53:49;;;;;;;20.40;19.33;;;5.60;99.90;;;;;;5051310;28;20472;-63
2021/04/08 06:56:17;;;;;;;23.37;21.73;;;5.40;99.90;;;;;;5052363;28;20444;-64
2021/04/08 06:58:44;;;;;;;23.47;21.53;;;5.50;99.90;;;;;;5051805;28;20798;-63
2021/04/08 07:01:12;;;;;;;22.17;20.77;;;5.60;99.90;;;;;;5051476;28;20471;-63
2021/04/08 07:03:39;;;;;;;22.07;20.57;;;5.70;99.90;;;;;;5051220;28;20468;-63
2021/04/08 07:06:06;;;;;;;22.47;21.00;;;5.70;99.90;;;;;;5051629;28;21009;-64
2021/04/08 07:08:32;;;;;;;22.17;20.80;;;5.90;99.90;;;;;;5053231;28;20429;-64
2021/04/08 07:10:59;;;;;;;21.20;19.80;;;5.90;99.90;;;;;;5051624;28;20443;-64
2021/04/08 07:13:27;;;;;;;20.33;19.23;;;6.20;99.90;;;;;;5051115;28;20494;-64
2021/04/08 07:15:55;;;;;;;22.03;20.03;;;6.30;99.90;;;;;;5052676;28;20598;-63
2021/04/08 07:18:23;;;;;;;22.63;20.83;;;6.30;99.90;;;;;;5053338;28;20471;-64
2021/04/08 07:20:50;;;;;;;20.67;19.47;;;6.30;99.90;;;;;;5053651;28;20440;-63
2021/04/08 07:23:16;;;;;;;22.20;20.63;;;6.40;98.70;;;;;;5053119;28;20472;-64
2021/04/08 07:26:01;;;;;;;20.40;19.40;;;6.40;98.90;;;;;;5053439;28;20476;-64
2021/04/08 07:28:32;;;;;;;22.23;20.80;;;6.30;98.10;;;;;;5053082;28;20448;-64
2021/04/08 07:31:21;;;;;;;20.77;19.57;;;6.30;97.80;;;;;;5052975;28;20451;-64
2021/04/08 07:33:48;;;;;;;21.20;19.87;;;6.50;97.90;;;;;;5054475;28;20476;-64
2021/04/08 07:36:24;;;;;;;19.77;18.80;;;6.60;97.90;;;;;;5056871;28;20441;-64
2021/04/08 07:38:51;;;;;;;22.93;20.87;;;6.70;96.60;;;;;;5055427;28;20443;-63
2021/04/08 07:41:23;;;;;;;20.63;19.00;;;6.80;95.70;;;;;;5055595;28;20444;-65
2021/04/08 07:44:01;;;;;;;19.70;18.57;;;7.10;95.60;;;;;;5055208;28;20467;-64
2021/04/08 07:46:39;;;;;;;20.53;19.40;;;7.30;95.60;;;;;;5055532;28;20447;-64
2021/04/08 07:49:24;;;;;;;20.90;19.90;;;7.30;93.70;;;;;;5055519;28;20444;-64
2021/04/08 07:51:51;;;;;;;20.50;19.40;;;7.10;94.00;;;;;;5055610;28;20991;-64
2021/04/08 07:54:19;;;;;;;20.60;19.60;;;7.10;92.70;;;;;;5056205;28;20436;-63
2021/04/08 07:56:46;;;;;;;21.73;20.43;;;7.00;92.60;;;;;;5056154;28;20447;-64
2021/04/08 07:59:18;;;;;;;21.97;20.50;;;7.10;92.00;;;;;;5056633;28;20848;-64
2021/04/08 08:01:45;;;;;;;20.93;19.70;;;7.00;90.90;;;;;;5055138;28;20870;-64
2021/04/08 08:04:19;;;;;;;21.20;19.93;;;6.70;90.30;;;;;;5054714;28;20505;-63
2021/04/08 08:06:45;;;;;;;20.30;19.20;;;6.80;90.70;;;;;;5055760;28;20478;-64
2021/04/08 08:09:12;;;;;;;21.53;19.80;;;6.60;90.50;;;;;;5057560;28;20933;-63
2021/04/08 08:11:40;;;;;;;21.57;20.30;;;6.70;91.40;;;;;;5056890;28;20451;-63
2021/04/08 08:14:08;;;;;;;19.67;18.70;;;6.90;91.70;;;;;;5054692;28;20444;-63
2021/04/08 08:16:37;;;;;;;20.83;19.80;;;7.10;90.60;;;;;;5054832;28;20499;-64
2021/04/08 08:19:04;;;;;;;21.30;20.20;;;7.10;89.20;;;;;;5054932;28;20452;-63
2021/04/08 08:21:35;;;;;;;21.97;20.37;;;7.20;87.60;;;;;;5055196;28;20444;-63
2021/04/08 08:24:06;;;;;;;21.83;20.20;;;7.30;90.30;;;;;;5054462;28;20860;-63
2021/04/08 08:26:35;;;;;;;20.93;19.77;;;7.40;87.00;;;;;;5054470;28;20820;-63
2021/04/08 08:29:04;;;;;;;21.77;20.47;;;7.50;83.50;;;;;;5054361;28;20474;-61
2021/04/08 08:31:36;;;;;;;22.00;20.57;;;7.40;82.60;;;;;;5055142;28;20448;-64
2021/04/08 08:34:05;;;;;;;20.30;19.40;;;7.40;80.80;;;;;;5054700;28;20466;-64
2021/04/08 08:36:32;;;;;;;23.83;21.90;;;7.50;80.50;;;;;;5054195;28;20493;-62
2021/04/08 08:39:00;;;;;;;22.07;20.83;;;7.90;81.20;;;;;;5054231;28;20841;-64
2021/04/08 08:41:27;;;;;;;21.97;20.63;;;8.10;81.80;;;;;;5054829;28;21022;-63
2021/04/08 08:43:54;;;;;;;20.70;19.63;;;8.40;76.70;;;;;;5053336;28;20456;-63
2021/04/08 08:46:21;;;;;;;21.57;20.57;;;8.60;74.40;;;;;;5053957;28;20483;-62
2021/04/08 08:48:49;;;;;;;21.90;20.60;;;8.40;72.60;;;;;;5053811;28;20502;-63
2021/04/08 08:51:16;;;;;;;21.30;20.00;;;8.40;75.70;;;;;;5053971;28;20952;-61
2021/04/08 08:53:42;;;;;;;21.77;20.57;;;8.70;75.10;;;;;;5053498;28;20464;-63
2021/04/08 08:56:09;;;;;;;22.57;20.87;;;9.00;72.30;;;;;;5053877;28;20445;-61
2021/04/08 08:58:35;;;;;;;21.23;20.33;;;9.30;73.40;;;;;;5055207;28;20444;-63
2021/04/08 09:01:01;;;;;;;22.70;21.30;;;9.30;66.60;;;;;;5056431;28;20833;-63
2021/04/08 09:03:28;;;;;;;23.93;22.20;;;9.30;66.10;;;;;;5055541;28;20468;-63
2021/04/08 09:05:57;;;;;;;22.47;20.80;;;9.80;66.70;;;;;;5055076;28;20922;-64
2021/04/08 09:08:26;;;;;;;22.23;20.93;;;9.70;60.10;;;;;;5055534;28;20444;-63
2021/04/08 09:10:53;;;;;;;23.77;22.33;;;9.60;58.10;;;;;;5055663;28;20973;-63
2021/04/08 09:13:19;;;;;;;22.53;21.17;;;9.60;58.10;;;;;;5055101;28;20464;-63
2021/04/08 09:15:46;;;;;;;21.50;20.60;;;9.80;57.70;;;;;;5053448;28;20444;-64
2021/04/08 09:18:13;;;;;;;23.87;22.60;;;10.20;56.10;;;;;;5054913;28;20958;-63
2021/04/08 09:20:40;;;;;;;22.17;20.90;;;10.00;53.50;;;;;;5053553;28;20472;-64
2021/04/08 09:23:08;;;;;;;21.70;20.67;;;9.90;55.10;;;;;;5053132;28;20463;-63
2021/04/08 09:25:37;;;;;;;21.87;20.97;;;9.70;55.90;;;;;;5052998;28;20479;-63
2021/04/08 09:28:07;;;;;;;22.50;21.30;;;9.50;53.40;;;;;;5053180;28;20444;-63
2021/04/08 09:30:48;;;;;;;22.43;21.30;;;9.60;53.80;;;;;;5053114;28;20542;-63
2021/04/08 09:33:14;;;;;;;23.37;21.70;;;9.60;54.00;;;;;;5052608;28;20525;-63
2021/04/08 09:35:43;;;;;;;21.20;20.30;;;9.90;54.50;;;;;;5052766;28;20446;-62
2021/04/08 09:38:20;;;;;;;21.77;20.57;;;9.90;51.50;;;;;;5053117;28;20448;-64
2021/04/08 09:41:00;;;;;;;21.80;20.80;;;10.00;49.90;;;;;;5053243;28;20510;-64
2021/04/08 09:43:28;;;;;;;22.17;21.17;;;10.20;50.30;;;;;;5052753;28;20973;-62
2021/04/08 09:46:06;;;;;;;21.90;20.80;;;10.00;49.20;;;;;;5052867;28;20471;-64
2021/04/08 09:48:49;;;;;;;20.53;19.53;;;10.20;46.00;;;;;;5053998;28;20467;-64
2021/04/08 09:51:36;;;;;;;22.50;21.03;;;10.30;43.60;;;;;;5052901;28;20842;-64
2021/04/08 09:54:09;;;;;;;20.97;19.83;;;10.80;46.10;;;;;;5052876;28;20453;-63
2021/04/08 09:56:53;;;;;;;21.20;20.33;;;10.90;45.70;;;;;;5051700;28;20941;-62
2021/04/08 09:59:20;;;;;;;22.07;20.90;;;10.80;42.40;;;;;;5052656;28;20823;-63
2021/04/08 10:01:47;;;;;;;21.80;20.80;;;11.00;43.30;;;;;;5052286;28;20440;-61
2021/04/08 10:04:19;;;;;;;21.10;20.30;;;11.10;42.70;;;;;;5052333;28;20933;-64
2021/04/08 10:06:46;;;;;;;21.67;20.87;;;11.50;40.80;;;;;;5053290;28;20439;-63
2021/04/08 10:09:16;;;;;;;20.90;20.00;;;11.50;38.60;;;;;;5052566;28;20476;-65
2021/04/08 10:11:43;;;;;;;21.00;19.90;;;11.40;38.10;;;;;;5052540;28;20440;-64
2021/04/08 10:14:21;;;;;;;20.80;20.00;;;11.60;38.90;;;;;;5052113;28;20510;-63
2021/04/08 10:17:00;;;;;;;22.10;21.00;;;11.30;38.60;;;;;;5052109;28;20509;-61
2021/04/08 10:19:30;;;;;;;21.90;21.00;;;10.80;39.10;;;;;;5052172;28;20443;-63
2021/04/08 10:21:57;;;;;;;22.40;21.30;;;11.20;38.40;;;;;;5052189;28;20494;-63
2021/04/08 10:24:24;;;;;;;21.57;20.77;;;11.50;38.20;;;;;;5051834;28;20448;-63
2021/04/08 10:26:50;;;;;;;21.57;20.70;;;11.30;37.00;;;;;;5051888;28;20535;-62
2021/04/08 10:29:30;;;;;;;20.90;20.10;;;11.30;37.40;;;;;;5051780;28;20447;-63
2021/04/08 10:31:56;;;;;;;21.63;20.63;;;11.30;38.00;;;;;;5051624;28;21012;-62
2021/04/08 10:34:23;;;;;;;21.17;20.17;;;11.60;38.40;;;;;;5051651;28;20510;-62
2021/04/08 10:36:55;;;;;;;22.13;20.60;;;11.60;38.30;;;;;;5051884;28;20444;-60
2021/04/08 10:39:24;;;;;;;21.60;20.60;;;12.20;37.50;;;;;;5051738;28;20805;-62
2021/04/08 10:41:58;;;;;;;22.40;21.10;;;12.40;37.40;;;;;;5051766;28;20476;-63
2021/04/08 10:44:26;;;;;;;21.70;20.80;;;12.70;37.10;;;;;;5051313;28;20501;-63
2021/04/08 10:46:53;;;;;;;22.50;21.40;;;12.50;36.60;;;;;;5051574;28;20844;-63
2021/04/08 10:49:25;;;;;;;21.10;20.20;;;12.80;36.40;;;;;;5052356;28;20444;-63
2021/04/08 10:51:52;;;;;;;21.53;20.50;;;12.70;35.70;;;;;;5051823;28;20448;-63
2021/04/08 10:54:18;;;;;;;22.33;21.43;;;12.40;35.50;;;;;;5051480;28;20441;-63
2021/04/08 10:56:48;;;;;;;22.70;21.30;;;12.40;35.60;;;;;;5052004;28;20788;-64
2021/04/08 10:59:19;;;;;;;21.90;21.00;;;12.10;35.20;;;;;;5052155;28;20448;-64
2021/04/08 11:01:46;;;;;;;22.10;21.10;;;12.00;35.60;;;;;;5051708;28;20447;-62
2021/04/08 11:04:12;;;;;;;21.50;20.60;;;12.00;35.50;;;;;;5051322;28;20447;-64
2021/04/08 11:06:39;;;;;;;21.90;20.37;;;12.10;36.00;;;;;;5051762;28;20853;-63
2021/04/08 11:09:06;;;;;;;21.50;20.50;;;12.30;35.90;;;;;;5051935;28;20440;-63
2021/04/08 11:11:32;;;;;;;21.20;20.17;;;12.30;35.00;;;;;;5051626;28;20498;-61
2021/04/08 11:13:58;;;;;;;22.00;20.90;;;12.30;35.00;;;;;;5051074;28;20448;-63
2021/04/08 11:16:28;;;;;;;22.00;21.00;;;12.20;36.30;;;;;;5051698;28;20447;-63
2021/04/08 11:18:58;;;;;;;23.50;22.50;;;12.80;35.40;;;;;;5052035;28;20810;-64
2021/04/08 11:21:25;;;;;;;23.47;22.30;;;13.00;35.30;;;;;;5051626;28;20501;-64
2021/04/08 11:23:52;;;;;;;23.60;22.50;;;12.70;35.10;;;;;;5051281;28;20539;-63
2021/04/08 11:26:18;;;;;;;23.17;21.93;;;12.50;34.30;;;;;;5051640;28;20527;-64
2021/04/08 11:28:44;;;;;;;22.80;21.70;;;12.10;34.30;;;;;;5051671;28;20443;-64
2021/04/08 11:31:15;;;;;;;22.73;21.63;;;13.80;35.40;;;;;;5051835;28;20454;-64
2021/04/08 11:33:42;;;;;;;22.50;21.50;;;14.90;33.50;;;;;;5051457;28;20849;-64
2021/04/08 11:36:19;;;;;;;21.93;20.93;;;15.30;32.20;;;;;;5051726;28;20444;-64
2021/04/08 11:38:46;;;;;;;21.60;20.70;;;14.50;31.40;;;;;;5051108;28;20444;-63
2021/04/08 11:41:13;;;;;;;22.50;21.30;;;14.00;31.70;;;;;;5050906;28;20444;-63
2021/04/08 11:43:47;;;;;;;22.77;21.53;;;13.80;32.50;;;;;;5050563;28;20464;-63
2021/04/08 11:46:28;;;;;;;22.40;21.30;;;13.40;32.40;;;;;;5050945;28;20498;-62
2021/04/08 11:48:57;;;;;;;23.70;22.50;;;13.40;32.80;;;;;;5051039;28;20534;-63
2021/04/08 11:51:25;;;;;;;22.97;21.97;;;13.30;32.90;;;;;;5051899;28;20484;-64
2021/04/08 11:53:53;;;;;;;23.17;22.17;;;13.40;33.00;;;;;;5051311;28;20494;-64
2021/04/08 11:56:30;;;;;;;22.97;21.77;;;15.60;34.10;;;;;;5051157;28;20816;-64
2021/04/08 11:59:07;;;;;;;22.40;21.40;;;15.20;30.70;;;;;;5051488;28;20936;-64
2021/04/08 12:01:37;;;;;;;22.47;21.50;;;14.40;30.90;;;;;;5051708;28;20444;-64
2021/04/08 12:04:13;;;;;;;22.73;21.63;;;14.80;31.20;;;;;;5051322;28;20497;-63
2021/04/08 12:06:41;;;;;;;22.83;21.73;;;15.60;31.00;;;;;;5051396;28;20533;-63
2021/04/08 12:09:08;;;;;;;22.50;21.50;;;15.30;31.00;;;;;;5051550;28;20444;-64
2021/04/08 12:11:47;;;;;;;22.30;21.30;;;14.90;31.00;;;;;;5051426;28;20904;-64
2021/04/08 12:14:13;;;;;;;22.47;21.57;;;14.60;31.20;;;;;;5051224;28;20872;-63
2021/04/08 12:16:39;;;;;;;24.40;22.87;;;14.20;31.00;;;;;;5051406;28;20443;-62
2021/04/08 12:19:06;;;;;;;22.20;21.30;;;14.40;31.30;;;;;;5051304;28;20805;-63
2021/04/08 12:21:34;;;;;;;22.90;21.80;;;15.50;31.30;;;;;;5054351;28;20444;-64
2021/04/08 12:24:08;;;;;;;22.67;21.77;;;17.10;31.10;;;;;;5054899;28;20961;-63
2021/04/08 12:26:36;;;;;;;22.13;21.23;;;17.50;29.00;;;;;;5054838;28;20489;-64
2021/04/08 12:29:03;;;;;;;22.00;21.10;;;16.40;28.80;;;;;;5054967;28;20452;-62
2021/04/08 12:31:29;;;;;;;22.63;21.53;;;15.90;29.60;;;;;;5054258;28;20444;-60
2021/04/08 12:33:55;;;;;;;22.40;21.40;;;16.30;29.40;;;;;;5054583;28;20475;-64
2021/04/08 12:36:22;;;;;;;23.50;22.50;;;17.80;29.90;;;;;;5054733;28;20995;-64
2021/04/08 12:38:49;;;;;;;23.70;22.50;;;19.20;28.40;;;;;;5054592;28;20925;-63
2021/04/08 12:41:16;;;;;;;23.10;22.10;;;20.60;28.60;;;;;;5054561;28;21213;-61
2021/04/08 12:43:42;;;;;;;23.53;22.47;;;23.40;26.60;;;;;;5053716;28;20464;-61
2021/04/08 12:46:08;;;;;;;23.03;21.83;;;24.00;23.80;;;;;;5053677;28;20593;-61